• Join FlightAware (Why Join?)
  • Login
  • US Flag 
12:30PM EDT


 

Airport Tracker/Info


-or-


 

Live Flight TrackerFlight Track Log ✈ CEY501 ✈ 17-Apr-2014 ✈ TJSJ / SJU - SVMI / CCS

Flight Track Log - Related Links

Times and Time Zones

All times are in EDT time to prevent confusion due to time zone crossing. See the CEY501 flight status page for this flight to view local times or setup timezone preferences in your user account.

Time Position Orientation Groundspeed Altitude Reporting Facility
EDT Latitude Longitude Course Direction KTS MPH feet Rate Location/Type
11:31AM 18.4667 -65.9833 317° Northwest 150 173 1,300  Level San Juan Center
11:32AM 18.5000 -66.0167 317° Northwest 190 219 3,000 1,680 Climbing San Juan Center
11:33AM 18.5333 -66.0500 317° Northwest 190 219 4,700 1,620 Climbing San Juan Center
11:34AM 18.5333 -66.1000 270° West 190 219 6,300 1,500 Climbing San Juan Center
11:35AM 18.4833 -66.1333 212° Southwest 170 196 7,800 1,380 Climbing San Juan Center
11:36AM 18.4333 -66.1500 198° South 180 207 9,200 1,380 Climbing San Juan Center
11:37AM 18.3833 -66.1667 198° South 180 207 10,600 1,260 Climbing San Juan Center
11:38AM 18.3333 -66.1833 198° South 180 207 11,800 1,020 Climbing San Juan Center
11:39AM 18.2833 -66.2000 198° South 190 219 12,700 900 Climbing San Juan Center
11:40AM 18.2333 -66.2000 180° South 200 230 13,700 840 Climbing San Juan Center
11:41AM 18.1833 -66.2167 198° South 200 230 14,400 600 Climbing San Juan Center
11:42AM 18.1167 -66.2167 180° South 210 242 15,000 540 Climbing San Juan Center
11:43AM 18.0667 -66.2167 180° South 220 253 15,600 600 Climbing San Juan Center
11:44AM 18.0000 -66.2333 193° South 220 253 16,300 540 Climbing San Juan Center
11:45AM 17.9500 -66.2333 204° Southwest 220 253 16,700 480 Climbing San Juan Center
11:46AM 17.8833 -66.2500 193° South 220 253 17,300 480 Climbing San Juan Center
11:47AM 17.8167 -66.2500 180° South 230 265 17,700 300 Climbing San Juan Center
11:48AM 17.7333 -66.2667 191° South 230 265 18,000 120 Climbing San Juan Center
11:49AM 17.6667 -66.2667 180° South 250 288 18,000  Level San Juan Center
11:50AM 17.6000 -66.2667 180° South 260 299 18,000  Level San Juan Center
11:51AM 17.5333 -66.2833 193° South 270 311 18,000  Level San Juan Center
11:52AM 17.4500 -66.2833 180° South 270 311 18,000  Level San Juan Center
11:53AM 17.3833 -66.3000 193° South 260 299 18,000  Level San Juan Center
11:54AM 17.3167 -66.3167 193° South 260 299 18,000  Level San Juan Center
11:55AM 17.2333 -66.3333 191° South 260 299 18,000  Level San Juan Center
11:56AM 17.1667 -66.3500 193° South 270 311 18,000  Level San Juan Center
11:57AM 17.0833 -66.3500 180° South 260 299 18,000  Level San Juan Center
11:58AM 17.0167 -66.3667 193° South 260 299 18,000  Level San Juan Center
11:59AM 16.9500 -66.3833 193° South 260 299 18,000 -120 Level San Juan Center
12:00PM 16.8667 -66.4000 191° South 260 299 17,800 -180 Descending San Juan Center
12:01PM 16.8000 -66.4000 180° South 260 299 17,700 -300 Descending San Juan Center
12:02PM 16.7167 -66.4167 191° South 280 322 17,300 -480 Descending San Juan Center
12:03PM 16.6500 -66.4333 193° South 280 322 16,800 -480 Descending San Juan Center
12:04PM 16.5667 -66.4333 180° South 280 322 16,400 -420 Descending San Juan Center
12:05PM 16.4833 -66.4500 191° South 290 334 16,000 -120 Descending San Juan Center
12:08PM 16.2667 -66.5000 192° South 270 311 16,000  Level San Juan Center
12:09PM 16.1833 -66.5167 191° South 260 299 16,000  Level San Juan Center
12:12PM 15.9833 -66.5500 189° South 270 311 16,000  Level San Juan Center
12:14PM 15.8795 -66.5660 188° South  Level FlightAware Approximate
12:21PM 15.3920 -66.6377 182° South  Level FlightAware Approximate
12:22PM 15.3213 -66.6399 182° South  Level FlightAware Approximate
12:23PM 15.2506 -66.6421 182° South  Level FlightAware Approximate
12:24PM 15.1799 -66.6442 182° South  Level FlightAware Approximate
12:25PM 15.1092 -66.6464 182° South  Level FlightAware Approximate
12:26PM 15.0385 -66.6486 182° South  Level FlightAware Approximate
12:27PM 14.9678 -66.6508 182° South  Level FlightAware Approximate
12:28PM 14.8970 -66.6529 182° South  Level FlightAware Approximate
12:29PM 14.8263 -66.6551 182° South  Level FlightAware Approximate
12:30PM 14.7556 -66.6573 182° South  Level FlightAware Approximate
12:31PM 14.6849 -66.6595 182° South  Level FlightAware Approximate
12:32PM 14.6142 -66.6616 182° South  Level FlightAware Approximate
12:33PM 14.5435 -66.6638 182° South  Level FlightAware Approximate
12:34PM 14.4728 -66.6660 182° South  Level FlightAware Approximate
12:35PM 14.4021 -66.6667 180° South  Level FlightAware Approximate
12:36PM 14.3313 -66.6667 180° South  Level FlightAware Approximate
12:37PM 14.2606 -66.6667 180° South  Level FlightAware Approximate
12:38PM 14.1898 -66.6667 180° South  Level FlightAware Approximate
12:39PM 14.1191 -66.6667 180° South  Level FlightAware Approximate
12:40PM 14.0483 -66.6667 180° South  Level FlightAware Approximate
12:41PM 13.9776 -66.6667 180° South  Level FlightAware Approximate
12:42PM 13.9069 -66.6667 180° South  Level FlightAware Approximate
12:43PM 13.8361 -66.6667 180° South  Level FlightAware Approximate
12:44PM 13.7654 -66.6667 180° South  Level FlightAware Approximate
12:45PM 13.6946 -66.6667 180° South  Level FlightAware Approximate
12:46PM 13.6239 -66.6667 180° South  Level FlightAware Approximate
12:47PM 13.5532 -66.6667 180° South  Level FlightAware Approximate
12:48PM 13.4824 -66.6667 180° South  Level FlightAware Approximate
12:49PM 13.4117 -66.6667 180° South  Level FlightAware Approximate
12:50PM 13.3409 -66.6667 180° South  Level FlightAware Approximate
12:51PM 13.2702 -66.6667 180° South  Level FlightAware Approximate
12:52PM 13.1994 -66.6667 180° South  Level FlightAware Approximate
12:53PM 13.1287 -66.6667 180° South  Level FlightAware Approximate
12:54PM 13.0580 -66.6667 180° South  Level FlightAware Approximate
12:55PM 12.9872 -66.6667 180° South  Level FlightAware Approximate
12:56PM 12.9165 -66.6667 180° South  Level FlightAware Approximate
12:57PM 12.8457 -66.6667 180° South  Level FlightAware Approximate
12:58PM 12.7750 -66.6667 180° South  Level FlightAware Approximate
12:59PM 12.7043 -66.6667 180° South  Level FlightAware Approximate
01:00PM 12.6335 -66.6667 180° South  Level FlightAware Approximate
01:01PM 12.5628 -66.6667 180° South  Level FlightAware Approximate
01:02PM 12.4920 -66.6667 180° South  Level FlightAware Approximate
01:03PM 12.4213 -66.6667 180° South  Level FlightAware Approximate
01:04PM 12.3505 -66.6667 180° South  Level FlightAware Approximate
01:05PM 12.2798 -66.6667 180° South  Level FlightAware Approximate
01:06PM 12.2091 -66.6667 180° South  Level FlightAware Approximate
01:07PM 12.1383 -66.6667 180° South  Level FlightAware Approximate
01:08PM 12.0676 -66.6667 180° South  Level FlightAware Approximate
01:09PM 11.9968 -66.6667 180° South  Level FlightAware Approximate
01:10PM 11.9263 -66.6683 193° South  Level FlightAware Approximate
01:11PM 11.8573 -66.6846 193° South  Level FlightAware Approximate
01:12PM 11.7884 -66.7008 193° South  Level FlightAware Approximate
01:13PM 11.7195 -66.7170 193° South  Level FlightAware Approximate
01:14PM 11.6505 -66.7332 193° South  Level FlightAware Approximate
01:15PM 11.5816 -66.7494 193° South  Level FlightAware Approximate
01:16PM 11.5127 -66.7657 193° South  Level FlightAware Approximate
01:17PM 11.4437 -66.7819 193° South  Level FlightAware Approximate
01:18PM 11.3748 -66.7981 193° South  Level FlightAware Approximate
01:19PM 11.3054 -66.8122 191° South  Level FlightAware Approximate
01:20PM 11.2360 -66.8261 191° South  Level FlightAware Approximate
01:21PM 11.1672 -66.8427 196° South  Level FlightAware Approximate
01:22PM 11.0991 -66.8622 196° South  Level FlightAware Approximate
01:23PM 11.0300 -66.8773 191° South  Level FlightAware Approximate
01:24PM 10.9613 -66.8944 196° South  Level FlightAware Approximate
01:25PM 10.8932 -66.9138 196° South  Level FlightAware Approximate
01:26PM 10.8258 -66.9241 224° Southwest  Level FlightAware Approximate
01:27PM 10.7605 -66.9474 194° South  Level FlightAware Approximate
01:28PM 10.6912 -66.9618 191° South  Level FlightAware Approximate
01:29PM 10.6222 -66.9778 194° South  Level FlightAware Approximate
01:30PM 10.6000 -66.9667 90° East  Level FlightAware Approximate
01:31PM 10.6031 -66.9906 90° East  Level Estimated
01:32PM 10.6031 -66.9906 90° East  Level Estimated
01:33PM 10.6031 -66.9906 90° East  Level Estimated
01:34PM 10.6031 -66.9906 90° East  Level Estimated
01:35PM 10.6031 -66.9906 90° East  Level Estimated
01:36PM 10.6031 -66.9906 90° East  Level Estimated
01:37PM 10.6031 -66.9906 90° East  Level Estimated
01:38PM 10.6031 -66.9906 90° East  Level Estimated
01:39PM 10.6031 -66.9906 90° East  Level Estimated
01:40PM 10.6031 -66.9906 90° East  Level Estimated
01:41PM 10.6031 -66.9906 90° East  Level Estimated
01:42PM 10.6031 -66.9906 90° East  Level Estimated
01:43PM 10.6031 -66.9906 90° East  Level Estimated
01:44PM 10.6031 -66.9906 90° East  Level Estimated
01:45PM 10.6031 -66.9906 90° East  Level Estimated
01:46PM 10.6031 -66.9906 90° East  Level Estimated
01:47PM 10.6031 -66.9906 90° East  Level Estimated
01:48PM 10.6031 -66.9906 90° East  Level Estimated
01:49PM 10.6031 -66.9906 90° East  Level Estimated
01:50PM 10.6031 -66.9906 90° East  Level Estimated